Ruby_indah — 9VND — position and weather

sailwx.info

Track history (hours):
 
Tides and Currents Weather Stations Pressure Air Temp Water Temp Dewpoint Dewpoint Depression Visibility Wind Speed Wind Dir Waves Ship Positions

Ruby_indah

Last reported at 2015-Jan-12 01:24 UTC. Time now 2015-Feb-01 04:11 UTC.
Position N 22°07' E 114°20'.
Warning: this ship's position is 20 days out of date.

Length 229 m; draft 7.2 m.

Type: Cargo ship. MMSI: 564748000.

Date/timePositionNaut miles runAvg speedWind from/ knotsBaromVisibWave heightAir tempDewpointWater temp
2015-Jan-12 01:24N 22°07' E 114°20'1010.6
2015-Jan-12 00:28N 22°07' E 114°09'2 0.2
2015-Jan-11 15:21N 22°09' E 114°07'6 7.2
2015-Jan-11 14:30N 22°09' E 114°14'1112.1
2015-Jan-11 13:33N 22°09' E 114°26'30014.2
2015-Jan-10 16:29N 24°29' E 119°15'  
2015-Jan-08 06:17N 35°14' E 119°48'912.5
2015-Jan-08 05:33N 35°18' E 119°38'6 4.3
2015-Jan-08 04:08N 35°22' E 119°32'0 0.0
2015-Jan-08 03:50N 35°22' E 119°32'0 0.0
2015-Jan-07 19:26N 35°22' E 119°32'0 0.0
2015-Jan-07 18:26N 35°22' E 119°32'0 0.0
2015-Jan-07 17:32N 35°22' E 119°32'0 0.0
2015-Jan-07 16:31N 35°22' E 119°32'0 0.0
2015-Jan-07 15:31N 35°22' E 119°32'0 0.0
2015-Jan-07 13:19N 35°22' E 119°32'0 0.0
2015-Jan-07 10:07N 35°22' E 119°32'0 0.0
2015-Jan-07 09:13N 35°22' E 119°32'0 0.0
2015-Jan-07 08:31N 35°22' E 119°32'0 0.0
2015-Jan-07 07:07N 35°22' E 119°32'0 0.0
2015-Jan-07 05:19N 35°22' E 119°32'0 0.0
2015-Jan-07 04:31N 35°22' E 119°32'0 0.0
2015-Jan-07 03:07N 35°22' E 119°32'0 0.0
2015-Jan-07 02:31N 35°22' E 119°32'0 0.0
2015-Jan-07 00:13N 35°22' E 119°32'0 0.0
2015-Jan-06 23:25N 35°22' E 119°32'0 0.0
2015-Jan-06 22:25N 35°22' E 119°32'0 0.0
2015-Jan-06 21:31N 35°22' E 119°32'0 0.0
2015-Jan-06 20:31N 35°22' E 119°32'0 0.0
2015-Jan-06 19:07N 35°22' E 119°32'0 0.0
2015-Jan-06 18:13N 35°22' E 119°32'0 0.0
2015-Jan-06 17:31N 35°22' E 119°32'0 0.0
2015-Jan-06 16:13N 35°22' E 119°32'0 0.0
2015-Jan-06 15:25N 35°22' E 119°32'0 0.0
2015-Jan-06 14:31N 35°22' E 119°32'0 0.0
2015-Jan-06 12:07N 35°22' E 119°32'0 0.0
2015-Jan-06 11:19N 35°22' E 119°32'0 0.0
2015-Jan-06 10:12N 35°22' E 119°32'0 0.0
2015-Jan-06 09:30N 35°22' E 119°32'0 0.0
2015-Jan-06 08:30N 35°22' E 119°32'0 0.3
2015-Jan-06 07:33N 35°21' E 119°32'8 8.0
2015-Jan-06 06:33N 35°17' E 119°41'3 2.8
2015-Jan-06 05:31N 35°14' E 119°42'0 0.1
2015-Jan-06 04:31N 35°14' E 119°42'0 0.1
2015-Jan-06 03:31N 35°14' E 119°42'0 0.1
2015-Jan-06 02:31N 35°14' E 119°42'0 0.1
2015-Jan-06 01:31N 35°14' E 119°42'0 0.1
2015-Jan-06 00:25N 35°14' E 119°42'0 0.1
2015-Jan-05 23:31N 35°14' E 119°42'0 0.0
2015-Jan-05 22:31N 35°14' E 119°42'0 0.0
2015-Jan-05 21:30N 35°14' E 119°42'0 0.0
2015-Jan-05 20:18N 35°14' E 119°42'0 0.0
2015-Jan-05 19:18N 35°14' E 119°42'0 0.0
2015-Jan-05 18:30N 35°14' E 119°42'0 0.1
2015-Jan-05 17:30N 35°14' E 119°42'0 0.1
2015-Jan-05 16:30N 35°14' E 119°42'0 0.0
2015-Jan-05 13:13N 35°14' E 119°42'0 0.1
2015-Jan-05 12:31N 35°14' E 119°42'0 0.0
2015-Jan-05 11:24N 35°14' E 119°42'0 0.0
2015-Jan-05 10:33N 35°14' E 119°42'0 0.1
2015-Jan-05 09:33N 35°14' E 119°42'0 0.1
2015-Jan-05 08:33N 35°14' E 119°42'0 0.0
2015-Jan-05 07:30N 35°14' E 119°42'0 0.0
2015-Jan-05 06:33N 35°14' E 119°42'0 0.2
2015-Jan-05 05:33N 35°14' E 119°42'0 0.1
2015-Jan-05 04:32N 35°14' E 119°42'0 0.1
2015-Jan-05 03:33N 35°14' E 119°42'0 0.0
2015-Jan-05 02:33N 35°14' E 119°42'0 0.0
2015-Jan-05 01:30N 35°14' E 119°42'0 0.0
2015-Jan-05 00:33N 35°14' E 119°42'0 0.1
2015-Jan-04 23:32N 35°14' E 119°42'0 0.1
2015-Jan-04 22:33N 35°14' E 119°42'0 0.0
2015-Jan-04 21:34N 35°14' E 119°42'0 0.0
2015-Jan-04 20:34N 35°14' E 119°42'0 0.0
2015-Jan-04 19:33N 35°14' E 119°42'0 0.1
2015-Jan-04 18:32N 35°14' E 119°42'0 0.1
2015-Jan-04 17:33N 35°14' E 119°42'0 0.1
2015-Jan-04 16:33N 35°14' E 119°42'0 0.2
2015-Jan-04 15:33N 35°14' E 119°42'1 0.5
2015-Jan-04 14:33N 35°14' E 119°42'0 0.1
2015-Jan-04 13:33N 35°14' E 119°42'0 0.0
2015-Jan-04 12:34N 35°14' E 119°42'0 0.2
2015-Jan-04 11:32N 35°14' E 119°42'0 0.1
2015-Jan-04 10:33N 35°14' E 119°42'0 0.0
2015-Jan-04 09:33N 35°14' E 119°42'0 0.0
2015-Jan-04 08:32N 35°14' E 119°42'2 1.6
2015-Jan-04 07:33N 35°14' E 119°43'9 9.1
2015-Jan-04 06:33N 35°13' E 119°54'  
Track history (hours):
 
Tides and Currents Weather Stations Pressure Air Temp Water Temp Dewpoint Dewpoint Depression Visibility Wind Speed Wind Dir Waves Ship Positions

Ruby_indah

Last reported at 2015-Jan-12 01:24 UTC. Time now 2015-Feb-01 04:11 UTC.
Position N 22°07' E 114°20'.
Warning: this ship's position is 20 days out of date.

Length 229 m; draft 7.2 m.

Type: Cargo ship. MMSI: 564748000.

Date/timePositionNaut miles runAvg speedWind from/ knotsBaromVisibWave heightAir tempDewpointWater temp
2015-Jan-12 01:24N 22°07' E 114°20'1010.6
2015-Jan-12 00:28N 22°07' E 114°09'2 0.2
2015-Jan-11 15:21N 22°09' E 114°07'6 7.2
2015-Jan-11 14:30N 22°09' E 114°14'1112.1
2015-Jan-11 13:33N 22°09' E 114°26'30014.2
2015-Jan-10 16:29N 24°29' E 119°15'  
2015-Jan-08 06:17N 35°14' E 119°48'912.5
2015-Jan-08 05:33N 35°18' E 119°38'6 4.3
2015-Jan-08 04:08N 35°22' E 119°32'0 0.0
2015-Jan-08 03:50N 35°22' E 119°32'0 0.0
2015-Jan-07 19:26N 35°22' E 119°32'0 0.0
2015-Jan-07 18:26N 35°22' E 119°32'0 0.0
2015-Jan-07 17:32N 35°22' E 119°32'0 0.0
2015-Jan-07 16:31N 35°22' E 119°32'0 0.0
2015-Jan-07 15:31N 35°22' E 119°32'0 0.0
2015-Jan-07 13:19N 35°22' E 119°32'0 0.0
2015-Jan-07 10:07N 35°22' E 119°32'0 0.0
2015-Jan-07 09:13N 35°22' E 119°32'0 0.0
2015-Jan-07 08:31N 35°22' E 119°32'0 0.0
2015-Jan-07 07:07N 35°22' E 119°32'0 0.0
2015-Jan-07 05:19N 35°22' E 119°32'0 0.0
2015-Jan-07 04:31N 35°22' E 119°32'0 0.0
2015-Jan-07 03:07N 35°22' E 119°32'0 0.0
2015-Jan-07 02:31N 35°22' E 119°32'0 0.0
2015-Jan-07 00:13N 35°22' E 119°32'0 0.0
2015-Jan-06 23:25N 35°22' E 119°32'0 0.0
2015-Jan-06 22:25N 35°22' E 119°32'0 0.0
2015-Jan-06 21:31N 35°22' E 119°32'0 0.0
2015-Jan-06 20:31N 35°22' E 119°32'0 0.0
2015-Jan-06 19:07N 35°22' E 119°32'0 0.0
2015-Jan-06 18:13N 35°22' E 119°32'0 0.0
2015-Jan-06 17:31N 35°22' E 119°32'0 0.0
2015-Jan-06 16:13N 35°22' E 119°32'0 0.0
2015-Jan-06 15:25N 35°22' E 119°32'0 0.0
2015-Jan-06 14:31N 35°22' E 119°32'0 0.0
2015-Jan-06 12:07N 35°22' E 119°32'0 0.0
2015-Jan-06 11:19N 35°22' E 119°32'0 0.0
2015-Jan-06 10:12N 35°22' E 119°32'0 0.0
2015-Jan-06 09:30N 35°22' E 119°32'0 0.0
2015-Jan-06 08:30N 35°22' E 119°32'0 0.3
2015-Jan-06 07:33N 35°21' E 119°32'8 8.0
2015-Jan-06 06:33N 35°17' E 119°41'3 2.8
2015-Jan-06 05:31N 35°14' E 119°42'0 0.1
2015-Jan-06 04:31N 35°14' E 119°42'0 0.1
2015-Jan-06 03:31N 35°14' E 119°42'0 0.1
2015-Jan-06 02:31N 35°14' E 119°42'0 0.1
2015-Jan-06 01:31N 35°14' E 119°42'0 0.1
2015-Jan-06 00:25N 35°14' E 119°42'0 0.1
2015-Jan-05 23:31N 35°14' E 119°42'0 0.0
2015-Jan-05 22:31N 35°14' E 119°42'0 0.0
2015-Jan-05 21:30N 35°14' E 119°42'0 0.0
2015-Jan-05 20:18N 35°14' E 119°42'0 0.0
2015-Jan-05 19:18N 35°14' E 119°42'0 0.0
2015-Jan-05 18:30N 35°14' E 119°42'0 0.1
2015-Jan-05 17:30N 35°14' E 119°42'0 0.1
2015-Jan-05 16:30N 35°14' E 119°42'0 0.0
2015-Jan-05 13:13N 35°14' E 119°42'0 0.1
2015-Jan-05 12:31N 35°14' E 119°42'0 0.0
2015-Jan-05 11:24N 35°14' E 119°42'0 0.0
2015-Jan-05 10:33N 35°14' E 119°42'0 0.1
2015-Jan-05 09:33N 35°14' E 119°42'0 0.1
2015-Jan-05 08:33N 35°14' E 119°42'0 0.0
2015-Jan-05 07:30N 35°14' E 119°42'0 0.0
2015-Jan-05 06:33N 35°14' E 119°42'0 0.2
2015-Jan-05 05:33N 35°14' E 119°42'0 0.1
2015-Jan-05 04:32N 35°14' E 119°42'0 0.1
2015-Jan-05 03:33N 35°14' E 119°42'0 0.0
2015-Jan-05 02:33N 35°14' E 119°42'0 0.0
2015-Jan-05 01:30N 35°14' E 119°42'0 0.0
2015-Jan-05 00:33N 35°14' E 119°42'0 0.1
2015-Jan-04 23:32N 35°14' E 119°42'0 0.1
2015-Jan-04 22:33N 35°14' E 119°42'0 0.0
2015-Jan-04 21:34N 35°14' E 119°42'0 0.0
2015-Jan-04 20:34N 35°14' E 119°42'0 0.0
2015-Jan-04 19:33N 35°14' E 119°42'0 0.1
2015-Jan-04 18:32N 35°14' E 119°42'0 0.1
2015-Jan-04 17:33N 35°14' E 119°42'0 0.1
2015-Jan-04 16:33N 35°14' E 119°42'0 0.2
2015-Jan-04 15:33N 35°14' E 119°42'1 0.5
2015-Jan-04 14:33N 35°14' E 119°42'0 0.1
2015-Jan-04 13:33N 35°14' E 119°42'0 0.0
2015-Jan-04 12:34N 35°14' E 119°42'0 0.2
2015-Jan-04 11:32N 35°14' E 119°42'0 0.1
2015-Jan-04 10:33N 35°14' E 119°42'0 0.0
2015-Jan-04 09:33N 35°14' E 119°42'0 0.0
2015-Jan-04 08:32N 35°14' E 119°42'2 1.6
2015-Jan-04 07:33N 35°14' E 119°43'9 9.1
2015-Jan-04 06:33N 35°13' E 119°54'  

Dump ship's entire track history